sensor_id;sensor_type;location;lat;lon;timestamp;pressure;altitude;pressure_sealevel;temperature;humidity
33781;BME280;20097;50.832;19.100;2023-03-04T00:04:40;98266.66;;;-0.19;100.00
33781;BME280;20097;50.832;19.100;2023-03-04T00:09:44;98256.94;;;-0.26;100.00
33781;BME280;20097;50.832;19.100;2023-03-04T00:14:50;98235.47;;;-0.25;100.00
33781;BME280;20097;50.832;19.100;2023-03-04T00:19:54;98222.06;;;-0.29;100.00
33781;BME280;20097;50.832;19.100;2023-03-04T00:24:59;98228.81;;;-0.28;100.00
33781;BME280;20097;50.832;19.100;2023-03-04T00:30:05;98235.91;;;-0.31;100.00
33781;BME280;20097;50.832;19.100;2023-03-04T00:35:10;98234.31;;;-0.21;100.00
33781;BME280;20097;50.832;19.100;2023-03-04T00:40:14;98228.28;;;-0.20;100.00
33781;BME280;20097;50.832;19.100;2023-03-04T00:45:20;98230.13;;;-0.22;100.00
33781;BME280;20097;50.832;19.100;2023-03-04T00:50:24;98218.66;;;-0.29;100.00
33781;BME280;20097;50.832;19.100;2023-03-04T00:55:28;98221.66;;;-0.35;100.00
33781;BME280;20097;50.832;19.100;2023-03-04T01:00:34;98212.63;;;-0.28;100.00
33781;BME280;20097;50.832;19.100;2023-03-04T01:05:38;98211.47;;;-0.24;100.00
33781;BME280;20097;50.832;19.100;2023-03-04T01:10:43;98205.56;;;-0.37;100.00
33781;BME280;20097;50.832;19.100;2023-03-04T01:15:49;98192.69;;;-0.48;100.00
33781;BME280;20097;50.832;19.100;2023-03-04T01:20:53;98189.91;;;-0.45;100.00
33781;BME280;20097;50.832;19.100;2023-03-04T01:25:56;98189.22;;;-0.47;100.00
33781;BME280;20097;50.832;19.100;2023-03-04T01:31:02;98183.38;;;-0.49;100.00
33781;BME280;20097;50.832;19.100;2023-03-04T01:36:07;98162.66;;;-0.46;100.00
33781;BME280;20097;50.832;19.100;2023-03-04T01:41:12;98155.59;;;-0.55;100.00
33781;BME280;20097;50.832;19.100;2023-03-04T01:46:17;98167.72;;;-0.57;100.00
33781;BME280;20097;50.832;19.100;2023-03-04T01:51:23;98147.22;;;-0.57;100.00
33781;BME280;20097;50.832;19.100;2023-03-04T01:56:29;98149.78;;;-0.57;100.00
33781;BME280;20097;50.832;19.100;2023-03-04T02:01:35;98131.00;;;-0.58;100.00
33781;BME280;20097;50.832;19.100;2023-03-04T02:06:40;98133.94;;;-0.51;100.00
33781;BME280;20097;50.832;19.100;2023-03-04T02:11:45;98129.97;;;-0.55;100.00
33781;BME280;20097;50.832;19.100;2023-03-04T02:16:52;98131.38;;;-0.51;100.00
33781;BME280;20097;50.832;19.100;2023-03-04T02:21:56;98126.22;;;-0.62;100.00
33781;BME280;20097;50.832;19.100;2023-03-04T02:27:02;98116.75;;;-0.62;100.00
33781;BME280;20097;50.832;19.100;2023-03-04T02:32:09;98120.97;;;-0.61;100.00
33781;BME280;20097;50.832;19.100;2023-03-04T02:37:14;98116.19;;;-0.65;100.00
33781;BME280;20097;50.832;19.100;2023-03-04T02:42:20;98112.63;;;-0.75;100.00
33781;BME280;20097;50.832;19.100;2023-03-04T02:47:24;98104.38;;;-0.68;100.00
33781;BME280;20097;50.832;19.100;2023-03-04T02:52:30;98104.28;;;-0.66;100.00
33781;BME280;20097;50.832;19.100;2023-03-04T02:57:35;98097.41;;;-0.66;100.00
33781;BME280;20097;50.832;19.100;2023-03-04T03:02:39;98109.72;;;-0.71;100.00
33781;BME280;20097;50.832;19.100;2023-03-04T03:07:43;98094.41;;;-0.60;100.00
33781;BME280;20097;50.832;19.100;2023-03-04T03:12:49;98089.50;;;-0.63;100.00
33781;BME280;20097;50.832;19.100;2023-03-04T03:17:54;98079.16;;;-0.61;100.00
33781;BME280;20097;50.832;19.100;2023-03-04T03:22:58;98078.88;;;-0.69;100.00
33781;BME280;20097;50.832;19.100;2023-03-04T03:28:03;98071.19;;;-0.69;100.00
33781;BME280;20097;50.832;19.100;2023-03-04T03:33:07;98062.63;;;-0.57;100.00
33781;BME280;20097;50.832;19.100;2023-03-04T03:38:13;98079.06;;;-0.49;100.00
33781;BME280;20097;50.832;19.100;2023-03-04T03:43:18;98075.88;;;-0.63;100.00
33781;BME280;20097;50.832;19.100;2023-03-04T03:48:23;98064.59;;;-0.61;100.00
33781;BME280;20097;50.832;19.100;2023-03-04T03:53:27;98057.41;;;-0.56;100.00
33781;BME280;20097;50.832;19.100;2023-03-04T03:58:32;98054.84;;;-0.56;100.00
33781;BME280;20097;50.832;19.100;2023-03-04T04:03:38;98056.34;;;-0.53;100.00
33781;BME280;20097;50.832;19.100;2023-03-04T04:08:42;98056.81;;;-0.48;100.00
33781;BME280;20097;50.832;19.100;2023-03-04T04:13:47;98045.66;;;-0.47;100.00
33781;BME280;20097;50.832;19.100;2023-03-04T04:18:51;98043.00;;;-0.46;100.00
33781;BME280;20097;50.832;19.100;2023-03-04T04:23:55;98040.88;;;-0.41;100.00
33781;BME280;20097;50.832;19.100;2023-03-04T04:29:01;98039.38;;;-0.43;100.00
33781;BME280;20097;50.832;19.100;2023-03-04T04:34:05;98018.41;;;-0.37;100.00
33781;BME280;20097;50.832;19.100;2023-03-04T04:39:09;98017.50;;;-0.36;100.00
33781;BME280;20097;50.832;19.100;2023-03-04T04:44:14;98014.81;;;-0.35;100.00
33781;BME280;20097;50.832;19.100;2023-03-04T04:49:19;97989.28;;;-0.36;100.00
33781;BME280;20097;50.832;19.100;2023-03-04T04:54:22;97985.56;;;-0.32;100.00
33781;BME280;20097;50.832;19.100;2023-03-04T04:59:28;97971.47;;;-0.27;100.00
33781;BME280;20097;50.832;19.100;2023-03-04T05:04:33;97964.81;;;-0.29;100.00
33781;BME280;20097;50.832;19.100;2023-03-04T05:09:37;97954.00;;;-0.22;100.00
33781;BME280;20097;50.832;19.100;2023-03-04T05:14:42;97949.66;;;-0.21;100.00
33781;BME280;20097;50.832;19.100;2023-03-04T05:19:47;97941.88;;;-0.20;100.00
33781;BME280;20097;50.832;19.100;2023-03-04T05:24:51;97942.69;;;-0.30;100.00
33781;BME280;20097;50.832;19.100;2023-03-04T05:29:57;97942.91;;;-0.22;100.00
33781;BME280;20097;50.832;19.100;2023-03-04T05:35:03;97959.38;;;-0.25;100.00
33781;BME280;20097;50.832;19.100;2023-03-04T05:40:08;97963.19;;;-0.19;100.00
33781;BME280;20097;50.832;19.100;2023-03-04T05:45:14;97970.66;;;-0.16;100.00
33781;BME280;20097;50.832;19.100;2023-03-04T05:50:19;97980.22;;;-0.18;100.00
33781;BME280;20097;50.832;19.100;2023-03-04T05:55:24;97990.63;;;-0.09;100.00
33781;BME280;20097;50.832;19.100;2023-03-04T06:00:30;97984.53;;;-0.08;100.00
33781;BME280;20097;50.832;19.100;2023-03-04T06:05:35;97987.00;;;-0.06;100.00
33781;BME280;20097;50.832;19.100;2023-03-04T06:10:40;97990.25;;;-0.04;100.00
33781;BME280;20097;50.832;19.100;2023-03-04T06:15:46;97994.00;;;0.03;100.00
33781;BME280;20097;50.832;19.100;2023-03-04T06:20:50;97998.66;;;0.09;100.00
33781;BME280;20097;50.832;19.100;2023-03-04T06:25:55;97990.84;;;-0.01;100.00
33781;BME280;20097;50.832;19.100;2023-03-04T06:31:01;98003.81;;;0.09;100.00
33781;BME280;20097;50.832;19.100;2023-03-04T06:36:06;98009.75;;;0.10;100.00
33781;BME280;20097;50.832;19.100;2023-03-04T06:41:11;98009.75;;;0.10;100.00
33781;BME280;20097;50.832;19.100;2023-03-04T06:46:16;98013.81;;;0.12;100.00
33781;BME280;20097;50.832;19.100;2023-03-04T06:51:20;98026.91;;;0.20;100.00
33781;BME280;20097;50.832;19.100;2023-03-04T06:56:24;98023.06;;;0.15;100.00
33781;BME280;20097;50.832;19.100;2023-03-04T07:01:30;98020.38;;;0.16;100.00
33781;BME280;20097;50.832;19.100;2023-03-04T07:06:35;98012.31;;;0.21;100.00
33781;BME280;20097;50.832;19.100;2023-03-04T07:11:39;98016.50;;;0.22;100.00
33781;BME280;20097;50.832;19.100;2023-03-04T07:16:44;98011.72;;;0.28;100.00
33781;BME280;20097;50.832;19.100;2023-03-04T07:21:49;98010.94;;;0.28;100.00
33781;BME280;20097;50.832;19.100;2023-03-04T07:26:52;98016.50;;;0.33;100.00
33781;BME280;20097;50.832;19.100;2023-03-04T07:31:58;98009.75;;;0.32;100.00
33781;BME280;20097;50.832;19.100;2023-03-04T07:37:03;98012.91;;;0.46;100.00
33781;BME280;20097;50.832;19.100;2023-03-04T07:42:07;98000.53;;;0.40;100.00
33781;BME280;20097;50.832;19.100;2023-03-04T07:47:16;98003.81;;;0.42;100.00
33781;BME280;20097;50.832;19.100;2023-03-04T07:52:21;97993.75;;;0.39;100.00
33781;BME280;20097;50.832;19.100;2023-03-04T07:57:25;98000.16;;;0.56;100.00
33781;BME280;20097;50.832;19.100;2023-03-04T08:02:30;97997.59;;;0.56;100.00
33781;BME280;20097;50.832;19.100;2023-03-04T08:07:35;97990.34;;;0.61;100.00
33781;BME280;20097;50.832;19.100;2023-03-04T08:12:39;98000.97;;;0.67;100.00
33781;BME280;20097;50.832;19.100;2023-03-04T08:17:44;98008.66;;;0.67;100.00
33781;BME280;20097;50.832;19.100;2023-03-04T08:22:49;98001.66;;;0.69;100.00
33781;BME280;20097;50.832;19.100;2023-03-04T08:27:53;98003.16;;;0.72;100.00
33781;BME280;20097;50.832;19.100;2023-03-04T08:32:59;97993.72;;;0.72;100.00
33781;BME280;20097;50.832;19.100;2023-03-04T08:38:04;97997.00;;;0.74;100.00
33781;BME280;20097;50.832;19.100;2023-03-04T08:43:08;97990.44;;;0.81;100.00
33781;BME280;20097;50.832;19.100;2023-03-04T08:48:14;97982.63;;;0.83;100.00
33781;BME280;20097;50.832;19.100;2023-03-04T08:53:19;97984.81;;;0.87;100.00
33781;BME280;20097;50.832;19.100;2023-03-04T08:58:23;97985.50;;;0.89;100.00
33781;BME280;20097;50.832;19.100;2023-03-04T09:03:28;97987.34;;;0.98;100.00
33781;BME280;20097;50.832;19.100;2023-03-04T09:08:33;97996.91;;;0.96;100.00
33781;BME280;20097;50.832;19.100;2023-03-04T09:13:38;97986.19;;;1.02;100.00
33781;BME280;20097;50.832;19.100;2023-03-04T09:18:43;97988.38;;;1.07;100.00
33781;BME280;20097;50.832;19.100;2023-03-04T09:23:47;97982.47;;;1.16;100.00
33781;BME280;20097;50.832;19.100;2023-03-04T09:28:52;97976.94;;;1.31;100.00
33781;BME280;20097;50.832;19.100;2023-03-04T09:33:58;97966.09;;;1.49;100.00
33781;BME280;20097;50.832;19.100;2023-03-04T09:39:03;97956.63;;;1.49;100.00
33781;BME280;20097;50.832;19.100;2023-03-04T09:44:14;97948.19;;;1.68;100.00
33781;BME280;20097;50.832;19.100;2023-03-04T09:49:20;97944.31;;;1.73;100.00
33781;BME280;20097;50.832;19.100;2023-03-04T09:54:49;97932.53;;;1.71;100.00
33781;BME280;20097;50.832;19.100;2023-03-04T10:00:03;97945.69;;;1.77;100.00
33781;BME280;20097;50.832;19.100;2023-03-04T10:05:17;97941.53;;;1.86;100.00
33781;BME280;20097;50.832;19.100;2023-03-04T10:10:24;97937.84;;;1.79;100.00
33781;BME280;20097;50.832;19.100;2023-03-04T10:15:32;97942.66;;;1.93;100.00
33781;BME280;20097;50.832;19.100;2023-03-04T10:20:46;97936.38;;;1.86;100.00
33781;BME280;20097;50.832;19.100;2023-03-04T10:25:54;97928.69;;;1.95;100.00
33781;BME280;20097;50.832;19.100;2023-03-04T10:30:59;97919.19;;;1.86;100.00
33781;BME280;20097;50.832;19.100;2023-03-04T10:36:31;97927.59;;;1.88;100.00
33781;BME280;20097;50.832;19.100;2023-03-04T10:41:41;97922.22;;;2.01;100.00
33781;BME280;20097;50.832;19.100;2023-03-04T10:46:46;97915.81;;;1.95;100.00
33781;BME280;20097;50.832;19.100;2023-03-04T10:51:54;97915.38;;;1.81;100.00
33781;BME280;20097;50.832;19.100;2023-03-04T10:57:04;97904.63;;;1.76;100.00
33781;BME280;20097;50.832;19.100;2023-03-04T11:02:15;97894.56;;;1.63;100.00
33781;BME280;20097;50.832;19.100;2023-03-04T11:07:22;97884.59;;;1.70;100.00
33781;BME280;20097;50.832;19.100;2023-03-04T11:12:31;97890.50;;;1.61;100.00
33781;BME280;20097;50.832;19.100;2023-03-04T11:17:42;97891.50;;;1.69;100.00
33781;BME280;20097;50.832;19.100;2023-03-04T11:22:49;97886.16;;;1.61;100.00
33781;BME280;20097;50.832;19.100;2023-03-04T11:27:56;97884.84;;;1.67;100.00
33781;BME280;20097;50.832;19.100;2023-03-04T11:33:08;97884.66;;;1.59;100.00
33781;BME280;20097;50.832;19.100;2023-03-04T11:38:17;97884.06;;;1.76;100.00
33781;BME280;20097;50.832;19.100;2023-03-04T11:43:24;97878.28;;;1.83;100.00
33781;BME280;20097;50.832;19.100;2023-03-04T11:48:36;97869.13;;;1.90;100.00
33781;BME280;20097;50.832;19.100;2023-03-04T11:53:52;97866.28;;;1.93;100.00
33781;BME280;20097;50.832;19.100;2023-03-04T12:10:31;97858.72;;;2.01;100.00
33781;BME280;20097;50.832;19.100;2023-03-04T12:15:41;97848.16;;;2.14;100.00
33781;BME280;20097;50.832;19.100;2023-03-04T12:20:56;97841.16;;;2.25;100.00
33781;BME280;20097;50.832;19.100;2023-03-04T12:26:06;97839.41;;;2.35;100.00
33781;BME280;20097;50.832;19.100;2023-03-04T12:31:36;97835.09;;;2.45;100.00
33781;BME280;20097;50.832;19.100;2023-03-04T12:36:43;97834.00;;;2.38;100.00
33781;BME280;20097;50.832;19.100;2023-03-04T12:41:56;97831.41;;;2.48;100.00
33781;BME280;20097;50.832;19.100;2023-03-04T12:47:19;97815.00;;;2.49;100.00
33781;BME280;20097;50.832;19.100;2023-03-04T12:52:31;97819.78;;;2.44;100.00
33781;BME280;20097;50.832;19.100;2023-03-04T12:57:41;97825.59;;;2.55;100.00
33781;BME280;20097;50.832;19.100;2023-03-04T13:03:01;97815.28;;;2.46;100.00
33781;BME280;20097;50.832;19.100;2023-03-04T13:08:15;97811.09;;;2.54;100.00
33781;BME280;20097;50.832;19.100;2023-03-04T13:13:36;97811.91;;;2.55;100.00
33781;BME280;20097;50.832;19.100;2023-03-04T13:18:41;97804.59;;;2.60;100.00
33781;BME280;20097;50.832;19.100;2023-03-04T13:23:46;97791.16;;;2.66;100.00
33781;BME280;20097;50.832;19.100;2023-03-04T13:34:47;97790.59;;;2.72;100.00
33781;BME280;20097;50.832;19.100;2023-03-04T13:40:23;97789.81;;;2.71;100.00
33781;BME280;20097;50.832;19.100;2023-03-04T13:45:32;97791.41;;;2.82;100.00
33781;BME280;20097;50.832;19.100;2023-03-04T13:50:40;97786.09;;;2.93;100.00
33781;BME280;20097;50.832;19.100;2023-03-04T13:55:44;97772.00;;;2.97;100.00
33781;BME280;20097;50.832;19.100;2023-03-04T14:01:05;97778.19;;;3.04;100.00
33781;BME280;20097;50.832;19.100;2023-03-04T14:06:23;97774.13;;;3.11;100.00
33781;BME280;20097;50.832;19.100;2023-03-04T14:11:30;97773.69;;;3.16;100.00
33781;BME280;20097;50.832;19.100;2023-03-04T14:16:38;97777.19;;;3.24;100.00
33781;BME280;20097;50.832;19.100;2023-03-04T14:21:44;97775.97;;;3.28;100.00
33781;BME280;20097;50.832;19.100;2023-03-04T14:26:49;97772.41;;;3.39;100.00
33781;BME280;20097;50.832;19.100;2023-03-04T14:31:54;97772.94;;;3.42;100.00
33781;BME280;20097;50.832;19.100;2023-03-04T14:36:59;97768.75;;;3.41;100.00
33781;BME280;20097;50.832;19.100;2023-03-04T14:42:07;97775.94;;;3.38;100.00
33781;BME280;20097;50.832;19.100;2023-03-04T14:47:16;97772.78;;;3.44;100.00
33781;BME280;20097;50.832;19.100;2023-03-04T14:52:35;97779.19;;;3.40;100.00
33781;BME280;20097;50.832;19.100;2023-03-04T14:57:40;97765.16;;;3.52;100.00
33781;BME280;20097;50.832;19.100;2023-03-04T15:02:47;97759.69;;;3.55;100.00
33781;BME280;20097;50.832;19.100;2023-03-04T15:07:53;97759.28;;;3.59;100.00
33781;BME280;20097;50.832;19.100;2023-03-04T15:12:59;97754.84;;;3.52;100.00
33781;BME280;20097;50.832;19.100;2023-03-04T15:18:16;97742.91;;;3.51;100.00
33781;BME280;20097;50.832;19.100;2023-03-04T15:23:21;97740.88;;;3.45;100.00
33781;BME280;20097;50.832;19.100;2023-03-04T15:28:26;97736.28;;;3.39;100.00
33781;BME280;20097;50.832;19.100;2023-03-04T15:33:34;97740.66;;;3.38;100.00
33781;BME280;20097;50.832;19.100;2023-03-04T15:38:39;97739.00;;;3.37;100.00
33781;BME280;20097;50.832;19.100;2023-03-04T15:43:43;97739.84;;;3.38;100.00
33781;BME280;20097;50.832;19.100;2023-03-04T15:48:48;97742.28;;;3.39;100.00
33781;BME280;20097;50.832;19.100;2023-03-04T15:53:53;97756.00;;;3.40;100.00
33781;BME280;20097;50.832;19.100;2023-03-04T15:59:01;97743.78;;;3.32;100.00
33781;BME280;20097;50.832;19.100;2023-03-04T16:04:10;97750.06;;;3.30;100.00
33781;BME280;20097;50.832;19.100;2023-03-04T16:09:15;97746.38;;;3.32;100.00
33781;BME280;20097;50.832;19.100;2023-03-04T16:14:21;97727.53;;;3.32;100.00
33781;BME280;20097;50.832;19.100;2023-03-04T16:19:27;97739.75;;;3.30;100.00
33781;BME280;20097;50.832;19.100;2023-03-04T16:24:32;97746.13;;;3.26;100.00
33781;BME280;20097;50.832;19.100;2023-03-04T16:29:37;97747.63;;;3.28;100.00
33781;BME280;20097;50.832;19.100;2023-03-04T16:34:43;97741.78;;;3.26;100.00
33781;BME280;20097;50.832;19.100;2023-03-04T16:39:47;97737.84;;;3.22;100.00
33781;BME280;20097;50.832;19.100;2023-03-04T16:44:52;97762.41;;;3.26;100.00
33781;BME280;20097;50.832;19.100;2023-03-04T16:49:58;97752.25;;;3.25;100.00
33781;BME280;20097;50.832;19.100;2023-03-04T16:55:03;97760.25;;;3.22;100.00
33781;BME280;20097;50.832;19.100;2023-03-04T17:00:08;97767.84;;;3.23;100.00
33781;BME280;20097;50.832;19.100;2023-03-04T17:05:16;97768.78;;;3.22;100.00
33781;BME280;20097;50.832;19.100;2023-03-04T17:10:21;97768.53;;;3.25;100.00
33781;BME280;20097;50.832;19.100;2023-03-04T17:15:25;97766.22;;;3.22;100.00
33781;BME280;20097;50.832;19.100;2023-03-04T17:20:30;97761.88;;;3.23;100.00
33781;BME280;20097;50.832;19.100;2023-03-04T17:25:35;97772.63;;;3.18;100.00
33781;BME280;20097;50.832;19.100;2023-03-04T17:30:39;97774.09;;;3.21;100.00
33781;BME280;20097;50.832;19.100;2023-03-04T17:35:45;97787.41;;;3.16;100.00
33781;BME280;20097;50.832;19.100;2023-03-04T17:40:48;97798.00;;;3.13;100.00
33781;BME280;20097;50.832;19.100;2023-03-04T17:46:01;97800.19;;;3.08;100.00
33781;BME280;20097;50.832;19.100;2023-03-04T17:51:07;97798.81;;;3.04;100.00
33781;BME280;20097;50.832;19.100;2023-03-04T17:56:12;97814.75;;;2.71;100.00
33781;BME280;20097;50.832;19.100;2023-03-04T18:01:17;97823.25;;;2.14;100.00
33781;BME280;20097;50.832;19.100;2023-03-04T18:06:23;97835.66;;;1.90;100.00
33781;BME280;20097;50.832;19.100;2023-03-04T18:11:29;97839.09;;;1.70;100.00
33781;BME280;20097;50.832;19.100;2023-03-04T18:16:33;97834.22;;;1.67;100.00
33781;BME280;20097;50.832;19.100;2023-03-04T18:21:39;97834.50;;;1.64;100.00
33781;BME280;20097;50.832;19.100;2023-03-04T18:26:43;97830.06;;;1.46;100.00
33781;BME280;20097;50.832;19.100;2023-03-04T18:31:47;97839.22;;;1.38;100.00
33781;BME280;20097;50.832;19.100;2023-03-04T18:36:53;97845.63;;;1.44;100.00
33781;BME280;20097;50.832;19.100;2023-03-04T18:41:57;97848.19;;;1.44;100.00
33781;BME280;20097;50.832;19.100;2023-03-04T18:47:02;97847.38;;;1.43;100.00
33781;BME280;20097;50.832;19.100;2023-03-04T18:52:07;97859.44;;;1.43;100.00
33781;BME280;20097;50.832;19.100;2023-03-04T18:57:12;97869.59;;;1.45;100.00
33781;BME280;20097;50.832;19.100;2023-03-04T19:02:20;97862.09;;;1.41;100.00
33781;BME280;20097;50.832;19.100;2023-03-04T19:07:29;97875.41;;;1.47;100.00
33781;BME280;20097;50.832;19.100;2023-03-04T19:12:33;97873.91;;;1.44;100.00
33781;BME280;20097;50.832;19.100;2023-03-04T19:17:37;97868.19;;;1.40;100.00
33781;BME280;20097;50.832;19.100;2023-03-04T19:22:43;97867.16;;;1.43;100.00
33781;BME280;20097;50.832;19.100;2023-03-04T19:27:48;97869.75;;;1.32;100.00
33781;BME280;20097;50.832;19.100;2023-03-04T19:32:53;97870.63;;;1.42;100.00
33781;BME280;20097;50.832;19.100;2023-03-04T19:37:59;97875.78;;;1.42;100.00
33781;BME280;20097;50.832;19.100;2023-03-04T19:43:03;97873.59;;;1.37;100.00
33781;BME280;20097;50.832;19.100;2023-03-04T19:48:08;97882.34;;;1.35;100.00
33781;BME280;20097;50.832;19.100;2023-03-04T19:53:13;97884.84;;;1.36;100.00
33781;BME280;20097;50.832;19.100;2023-03-04T19:58:20;97890.19;;;1.33;100.00
33781;BME280;20097;50.832;19.100;2023-03-04T20:03:24;97891.03;;;1.34;100.00
33781;BME280;20097;50.832;19.100;2023-03-04T20:08:30;97894.94;;;1.28;100.00
33781;BME280;20097;50.832;19.100;2023-03-04T20:13:33;97890.34;;;1.32;100.00
33781;BME280;20097;50.832;19.100;2023-03-04T20:18:38;97895.72;;;1.29;100.00
33781;BME280;20097;50.832;19.100;2023-03-04T20:23:44;97890.72;;;1.27;100.00
33781;BME280;20097;50.832;19.100;2023-03-04T20:28:49;97898.94;;;1.21;100.00
33781;BME280;20097;50.832;19.100;2023-03-04T20:33:54;97905.00;;;1.20;100.00
33781;BME280;20097;50.832;19.100;2023-03-04T20:38:59;97900.50;;;1.13;100.00
33781;BME280;20097;50.832;19.100;2023-03-04T20:44:08;97895.47;;;1.11;100.00
33781;BME280;20097;50.832;19.100;2023-03-04T20:49:13;97910.91;;;1.11;100.00
33781;BME280;20097;50.832;19.100;2023-03-04T20:54:19;97906.94;;;1.07;100.00
33781;BME280;20097;50.832;19.100;2023-03-04T20:59:24;97914.09;;;1.04;100.00
33781;BME280;20097;50.832;19.100;2023-03-04T21:04:28;97916.56;;;0.94;100.00
33781;BME280;20097;50.832;19.100;2023-03-04T21:09:36;97923.03;;;0.89;100.00
33781;BME280;20097;50.832;19.100;2023-03-04T21:14:40;97924.53;;;0.91;100.00
33781;BME280;20097;50.832;19.100;2023-03-04T21:19:44;97921.09;;;0.81;100.00
33781;BME280;20097;50.832;19.100;2023-03-04T21:24:50;97922.22;;;0.88;100.00
33781;BME280;20097;50.832;19.100;2023-03-04T21:29:54;97918.78;;;0.67;100.00
33781;BME280;20097;50.832;19.100;2023-03-04T21:34:58;97911.69;;;0.60;100.00
33781;BME280;20097;50.832;19.100;2023-03-04T21:40:05;97910.94;;;0.37;100.00
33781;BME280;20097;50.832;19.100;2023-03-04T21:45:09;97922.25;;;0.24;100.00
33781;BME280;20097;50.832;19.100;2023-03-04T21:50:14;97916.91;;;0.16;100.00
33781;BME280;20097;50.832;19.100;2023-03-04T21:55:20;97924.16;;;0.11;100.00
33781;BME280;20097;50.832;19.100;2023-03-04T22:00:24;97926.47;;;0.03;100.00
33781;BME280;20097;50.832;19.100;2023-03-04T22:05:28;97921.22;;;0.04;100.00
33781;BME280;20097;50.832;19.100;2023-03-04T22:10:37;97918.09;;;0.00;100.00
33781;BME280;20097;50.832;19.100;2023-03-04T22:15:42;97905.84;;;0.04;100.00
33781;BME280;20097;50.832;19.100;2023-03-04T22:20:46;97913.66;;;0.03;100.00
33781;BME280;20097;50.832;19.100;2023-03-04T22:25:52;97933.47;;;0.00;100.00
33781;BME280;20097;50.832;19.100;2023-03-04T22:30:57;97926.63;;;-0.10;100.00
33781;BME280;20097;50.832;19.100;2023-03-04T22:36:04;97922.16;;;-0.19;93.85
33781;BME280;20097;50.832;19.100;2023-03-04T22:41:13;97931.72;;;-0.21;89.98
33781;BME280;20097;50.832;19.100;2023-03-04T22:46:19;97930.91;;;-0.22;91.18
33781;BME280;20097;50.832;19.100;2023-03-04T22:51:23;97930.91;;;-0.22;91.91
33781;BME280;20097;50.832;19.100;2023-03-04T22:56:29;97924.38;;;-0.26;90.59
33781;BME280;20097;50.832;19.100;2023-03-04T23:01:33;97928.47;;;-0.23;91.50
33781;BME280;20097;50.832;19.100;2023-03-04T23:06:37;97922.63;;;-0.25;92.16
33781;BME280;20097;50.832;19.100;2023-03-04T23:11:43;97933.72;;;-0.25;93.37
33781;BME280;20097;50.832;19.100;2023-03-04T23:16:47;97934.75;;;-0.27;91.23
33781;BME280;20097;50.832;19.100;2023-03-04T23:21:52;97944.28;;;-0.40;90.03
33781;BME280;20097;50.832;19.100;2023-03-04T23:26:57;97943.81;;;-0.34;88.25
33781;BME280;20097;50.832;19.100;2023-03-04T23:32:02;97936.38;;;-0.37;89.38
33781;BME280;20097;50.832;19.100;2023-03-04T23:37:06;97934.63;;;-0.37;86.97
33781;BME280;20097;50.832;19.100;2023-03-04T23:42:12;97938.13;;;-0.38;87.90
33781;BME280;20097;50.832;19.100;2023-03-04T23:47:16;97939.63;;;-0.35;92.90
33781;BME280;20097;50.832;19.100;2023-03-04T23:52:20;97939.66;;;-0.24;92.94
33781;BME280;20097;50.832;19.100;2023-03-04T23:57:26;97942.09;;;-0.23;95.65
